sensor_id;sensor_type;location;lat;lon;timestamp;pressure;altitude;pressure_sealevel;temperature;humidity
77824;BME280;67015;46.242;6.028;2023-02-23T01:29:23;96417.0;;;6.5;95.61
77824;BME280;67015;46.242;6.028;2023-02-23T01:59:22;96392.0;;;6.35;96.62
77824;BME280;67015;46.242;6.028;2023-02-23T02:29:28;96366.0;;;6.3;96.91
77824;BME280;67015;46.242;6.028;2023-02-23T02:59:22;96346.0;;;6.28;96.62
77824;BME280;67015;46.242;6.028;2023-02-23T03:29:24;96340.0;;;6.25;97.01
77824;BME280;67015;46.242;6.028;2023-02-23T03:59:28;96335.0;;;6.17;97.29
77824;BME280;67015;46.242;6.028;2023-02-23T04:29:22;96341.0;;;6.19;97.92
77824;BME280;67015;46.242;6.028;2023-02-23T04:59:24;96346.0;;;6.21;97.61
77824;BME280;67015;46.242;6.028;2023-02-23T05:29:21;96342.0;;;6.19;97.41
77824;BME280;67015;46.242;6.028;2023-02-23T05:59:22;96334.0;;;6.17;97.87
77824;BME280;67015;46.242;6.028;2023-02-23T06:29:21;96337.0;;;6.16;98.27
77824;BME280;67015;46.242;6.028;2023-02-23T08:29:22;96347.0;;;6.19;97.77
77824;BME280;67015;46.242;6.028;2023-02-23T08:29:22;96382.0;;;6.17;97.48
77824;BME280;67015;46.242;6.028;2023-02-23T08:29:23;96386.0;;;6.49;97.95
77824;BME280;67015;46.242;6.028;2023-02-23T08:59:21;96368.0;;;8.38;91.98
77824;BME280;67015;46.242;6.028;2023-02-23T09:29:21;96372.0;;;9.44;86.49
77824;BME280;67015;46.242;6.028;2023-02-23T09:59:21;96375.0;;;12.83;70.94
77824;BME280;67015;46.242;6.028;2023-02-23T10:29:22;96362.0;;;15.09;60.54
77824;BME280;67015;46.242;6.028;2023-02-23T10:59:21;96348.0;;;15.04;59.44
77824;BME280;67015;46.242;6.028;2023-02-23T11:29:23;96334.0;;;15.24;56.97
77824;BME280;67015;46.242;6.028;2023-02-23T11:59:22;96291.0;;;16.04;58.36
77824;BME280;67015;46.242;6.028;2023-02-23T12:59:27;96267.0;;;15.83;58.13
77824;BME280;67015;46.242;6.028;2023-02-23T13:29:25;96227.0;;;15.21;58.92
77824;BME280;67015;46.242;6.028;2023-02-23T13:59:21;96212.0;;;15.1;58.13
77824;BME280;67015;46.242;6.028;2023-02-23T14:29:22;96189.0;;;15.24;59.46
77824;BME280;67015;46.242;6.028;2023-02-23T14:59:21;96176.0;;;15.11;57.27
77824;BME280;67015;46.242;6.028;2023-02-23T15:29:21;96169.0;;;14.33;58.82
77824;BME280;67015;46.242;6.028;2023-02-23T15:59:22;96162.0;;;13.47;60.78
77824;BME280;67015;46.242;6.028;2023-02-23T16:29:23;96179.0;;;12.49;64.78
77824;BME280;67015;46.242;6.028;2023-02-23T16:59:21;96184.0;;;11.85;68.37
77824;BME280;67015;46.242;6.028;2023-02-23T17:29:21;96198.0;;;11.53;67.94
77824;BME280;67015;46.242;6.028;2023-02-23T17:59:21;96219.0;;;11.03;70.51
77824;BME280;67015;46.242;6.028;2023-02-23T18:29:20;96238.0;;;10.35;72.8
77824;BME280;67015;46.242;6.028;2023-02-23T18:59:21;96227.0;;;9.38;76.6
77824;BME280;67015;46.242;6.028;2023-02-23T19:29:20;96240.0;;;8.71;78.64
77824;BME280;67015;46.242;6.028;2023-02-23T19:59:20;96252.0;;;8.34;80.62
77824;BME280;67015;46.242;6.028;2023-02-23T20:29:21;96258.0;;;8.29;80.24
77824;BME280;67015;46.242;6.028;2023-02-23T20:59:20;96267.0;;;8.18;80.88
77824;BME280;67015;46.242;6.028;2023-02-23T21:29:20;96258.0;;;8.11;82.53
77824;BME280;67015;46.242;6.028;2023-02-23T21:59:20;96234.0;;;7.89;83.8
77824;BME280;67015;46.242;6.028;2023-02-23T22:29:20;96233.0;;;8.06;84.28
77824;BME280;67015;46.242;6.028;2023-02-23T22:59:22;96238.0;;;7.92;84.6
77824;BME280;67015;46.242;6.028;2023-02-23T23:29:20;96221.0;;;7.32;87.43
77824;BME280;67015;46.242;6.028;2023-02-23T23:59:21;96202.0;;;6.69;88.75
